Time;durP1;ratioP1;P1;durP2;ratioP2;P2;SDS_P1;SDS_P2;PMS_P1;PMS_P2;Temp;Humidity;BMP_temperature;BMP_pressure;BME280_temperature;BME280_humidity;BME280_pressure;Samples;Min_cycle;Max_cycle;Signal;HPM_P1;HPM_P2
2022/10/24 00:00:24;;;;;;;13.87;4.20;;;;;;;24.06;100.00;100167.00;5003326;28;20050;-52
2022/10/24 00:02:50;;;;;;;9.05;3.47;;;;;;;24.38;100.00;100173.44;5008119;28;20279;-49
2022/10/24 00:05:15;;;;;;;6.43;3.15;;;;;;;23.96;100.00;100169.88;5004135;28;20041;-51
2022/10/24 00:07:41;;;;;;;9.05;3.33;;;;;;;24.14;100.00;100152.63;5003840;28;20055;-51
2022/10/24 00:10:08;;;;;;;10.65;3.40;;;;;;;23.89;100.00;100168.34;5002677;28;20031;-50
2022/10/24 00:12:33;;;;;;;9.90;3.43;;;;;;;24.09;100.00;100157.34;5007963;28;20121;-49
2022/10/24 00:14:59;;;;;;;12.65;3.35;;;;;;;22.33;100.00;100152.69;4999794;28;20124;-51
2022/10/24 00:17:25;;;;;;;13.98;4.28;;;;;;;22.05;100.00;100164.19;5005039;28;20035;-51
2022/10/24 00:19:53;;;;;;;12.73;3.70;;;;;;;22.05;100.00;100161.47;5000753;28;20062;-53
2022/10/24 00:22:19;;;;;;;8.83;3.60;;;;;;;22.70;100.00;100164.78;5002341;28;20046;-47
2022/10/24 00:24:45;;;;;;;14.50;3.53;;;;;;;22.15;100.00;100149.66;5012208;28;20031;-50
2022/10/24 00:27:11;;;;;;;18.67;4.45;;;;;;;21.76;100.00;100166.94;5005971;28;20034;-52
2022/10/24 00:29:37;;;;;;;12.73;4.43;;;;;;;22.19;100.00;100158.88;5018215;28;20050;-53
2022/10/24 00:32:03;;;;;;;10.43;3.30;;;;;;;22.35;100.00;100155.94;5002562;28;20038;-51
2022/10/24 00:34:28;;;;;;;8.35;3.28;;;;;;;22.35;100.00;100150.50;5006421;28;20344;-50
2022/10/24 00:36:54;;;;;;;12.20;3.45;;;;;;;22.73;100.00;100145.13;5004077;28;20045;-52
2022/10/24 00:39:20;;;;;;;19.17;3.38;;;;;;;23.01;100.00;100160.81;5006191;28;20038;-51
2022/10/24 00:41:45;;;;;;;5.40;2.72;;;;;;;22.98;100.00;100154.03;5006658;28;20042;-54
2022/10/24 00:44:21;;;;;;;11.00;2.88;;;;;;;24.54;100.00;100163.00;5010398;28;20027;-52
2022/10/24 00:47:12;;;;;;;11.40;3.07;;;;;;;24.00;100.00;100149.06;4993931;28;20090;-51
2022/10/24 00:49:52;;;;;;;15.27;3.47;;;;;;;24.68;100.00;100154.78;4998896;28;20139;-51
2022/10/24 00:52:23;;;;;;;11.40;3.07;;;;;;;24.32;100.00;100158.28;5003824;28;20041;-50
2022/10/24 00:54:51;;;;;;;10.50;2.77;;;;;;;23.09;100.00;100143.78;5000154;28;20041;-52
2022/10/24 00:57:35;;;;;;;12.97;3.00;;;;;;;24.13;100.00;100145.53;5004379;28;20089;-52
2022/10/24 01:00:07;;;;;;;13.53;2.57;;;;;;;23.95;100.00;100143.69;5002621;28;20065;-49
2022/10/24 01:02:33;;;;;;;9.93;2.40;;;;;;;24.04;100.00;100134.50;5003428;28;20030;-50
2022/10/24 01:05:01;;;;;;;9.27;2.17;;;;;;;24.40;100.00;100132.16;5009135;28;20057;-52
2022/10/24 01:08:01;;;;;;;7.83;2.60;;;;;;;25.16;100.00;100141.69;5006571;28;20102;-51
2022/10/24 01:11:05;;;;;;;15.97;2.83;;;;;;;24.66;100.00;100134.31;4992906;28;20071;-49
2022/10/24 01:13:42;;;;;;;10.17;2.40;;;;;;;24.89;100.00;100135.19;4946919;29;20118;-52
2022/10/24 01:16:25;;;;;;;6.55;2.50;;;;;;;25.06;100.00;100137.25;4945524;28;20040;-54
2022/10/24 01:19:09;;;;;;;9.23;2.73;;;;;;;24.67;100.00;100142.19;4988721;28;20046;-50
2022/10/24 01:21:40;;;;;;;10.53;2.60;;;;;;;25.00;100.00;100147.50;4995689;28;20065;-53
2022/10/24 01:24:21;;;;;;;5.10;2.20;;;;;;;24.56;100.00;100141.63;5008697;28;20039;-52
2022/10/24 01:26:52;;;;;;;12.77;2.50;;;;;;;24.76;100.00;100137.66;5005717;28;20034;-50
2022/10/24 01:29:36;;;;;;;11.23;3.03;;;;;;;25.17;100.00;100133.13;5006688;28;20041;-51
2022/10/24 01:32:05;;;;;;;9.07;2.50;;;;;;;25.03;100.00;100133.22;5006917;28;20046;-55
2022/10/24 01:34:49;;;;;;;6.90;2.50;;;;;;;25.05;100.00;100125.50;5011154;28;20042;-50
2022/10/24 01:37:22;;;;;;;8.87;2.73;;;;;;;24.61;100.00;100125.13;5010443;28;20030;-50
2022/10/24 01:39:53;;;;;;;14.07;2.57;;;;;;;24.78;100.00;100126.41;5016179;28;20041;-52
2022/10/24 01:42:22;;;;;;;23.53;3.47;;;;;;;24.70;100.00;100125.22;5011766;28;20027;-50
2022/10/24 01:44:52;;;;;;;5.07;2.13;;;;;;;24.95;100.00;100114.81;5002303;28;20030;-53
2022/10/24 01:47:26;;;;;;;4.60;1.80;;;;;;;24.75;100.00;100111.44;5011322;28;20056;-53
2022/10/24 01:49:57;;;;;;;6.20;2.23;;;;;;;24.46;100.00;100120.00;5005212;28;20027;-47
2022/10/24 01:52:27;;;;;;;11.37;2.30;;;;;;;24.97;100.00;100112.59;5054696;28;20060;-49
2022/10/24 01:54:54;;;;;;;9.57;2.87;;;;;;;24.85;100.00;100115.03;5050881;28;20069;-52
2022/10/24 01:57:19;;;;;;;10.73;3.03;;;;;;;24.85;100.00;100109.56;5048639;28;20106;-51
2022/10/24 01:59:48;;;;;;;7.43;2.10;;;;;;;24.91;100.00;100120.09;5054628;28;20041;-50
2022/10/24 02:02:22;;;;;;;8.60;2.20;;;;;;;24.92;100.00;100110.75;5050682;28;20060;-47
2022/10/24 02:04:51;;;;;;;6.17;2.20;;;;;;;24.72;100.00;100111.22;5055639;28;20044;-49
2022/10/24 02:07:18;;;;;;;12.17;2.60;;;;;;;24.38;100.00;100115.28;5053387;28;20025;-51
2022/10/24 02:09:49;;;;;;;8.97;2.30;;;;;;;24.34;100.00;100099.50;5051989;28;20030;-50
2022/10/24 02:12:17;;;;;;;8.97;2.27;;;;;;;24.40;100.00;100099.38;5048266;28;20033;-48
2022/10/24 02:14:48;;;;;;;6.43;2.67;;;;;;;25.08;100.00;100095.91;5052907;28;20032;-53
2022/10/24 02:17:15;;;;;;;9.30;2.70;;;;;;;24.82;100.00;100099.25;5052387;28;20034;-49
2022/10/24 02:19:43;;;;;;;5.77;3.03;;;;;;;24.61;100.00;100100.53;5056105;28;20029;-50
2022/10/24 02:22:26;;;;;;;8.33;2.07;;;;;;;24.19;100.00;100086.16;5056117;28;20096;-47
2022/10/24 02:25:02;;;;;;;7.77;2.20;;;;;;;24.65;100.00;100097.19;5049653;28;20048;-52
2022/10/24 02:27:37;;;;;;;6.63;2.47;;;;;;;24.19;100.00;100103.34;5053747;28;20050;-50
2022/10/24 02:30:02;;;;;;;9.50;2.33;;;;;;;24.48;100.00;100095.91;5050241;28;20282;-54
2022/10/24 02:32:37;;;;;;;3.95;1.80;;;;;;;24.32;100.00;100087.25;5055900;28;20029;-52
2022/10/24 02:35:05;;;;;;;13.40;2.67;;;;;;;24.80;100.00;100096.84;5048853;28;20037;-54
2022/10/24 02:37:35;;;;;;;11.20;2.40;;;;;;;24.71;100.00;100099.50;5052117;28;20041;-54
2022/10/24 02:40:05;;;;;;;5.20;2.07;;;;;;;24.45;100.00;100102.81;5047987;28;20041;-49
2022/10/24 02:42:33;;;;;;;16.00;2.27;;;;;;;24.76;100.00;100090.38;5051710;28;20037;-51
2022/10/24 02:44:59;;;;;;;17.73;2.70;;;;;;;24.28;100.00;100114.34;5055007;28;20029;-50
2022/10/24 02:47:27;;;;;;;6.75;1.60;;;;;;;24.23;100.00;100091.81;5050425;28;20037;-54
2022/10/24 02:49:53;;;;;;;6.93;2.00;;;;;;;24.28;100.00;100091.72;5051176;28;20034;-48
2022/10/24 02:52:19;;;;;;;8.13;1.90;;;;;;;24.34;100.00;100088.56;5006783;28;20143;-51
2022/10/24 02:54:45;;;;;;;6.20;1.83;;;;;;;24.01;100.00;100098.78;5009560;28;20070;-51
2022/10/24 02:57:12;;;;;;;5.38;1.70;;;;;;;24.25;100.00;100084.13;5007333;28;20049;-52
2022/10/24 02:59:37;;;;;;;8.67;2.00;;;;;;;24.46;100.00;100092.66;5009998;28;20069;-48
2022/10/24 03:02:03;;;;;;;5.28;1.80;;;;;;;24.48;100.00;100090.44;5013544;28;20112;-50
2022/10/24 03:04:29;;;;;;;14.25;2.00;;;;;;;24.50;100.00;100082.72;5009845;28;20049;-52
2022/10/24 03:06:54;;;;;;;8.40;1.83;;;;;;;24.21;100.00;100103.03;4995691;28;20102;-52
2022/10/24 03:09:20;;;;;;;7.53;2.27;;;;;;;23.90;100.00;100109.13;4995091;28;20307;-53
2022/10/24 03:11:46;;;;;;;4.82;1.85;;;;;;;24.09;100.00;100087.19;4993161;28;20050;-50
2022/10/24 03:14:11;;;;;;;6.05;1.73;;;;;;;24.24;100.00;100096.16;4995752;28;20066;-49
2022/10/24 03:16:36;;;;;;;7.63;1.98;;;;;;;24.28;100.00;100111.63;4996341;28;20026;-51
2022/10/24 03:19:02;;;;;;;9.25;2.25;;;;;;;24.22;100.00;100099.19;4996510;28;20046;-51
2022/10/24 03:21:27;;;;;;;7.70;1.83;;;;;;;24.39;100.00;100106.75;4999069;28;20038;-50
2022/10/24 03:23:53;;;;;;;7.80;1.70;;;;;;;24.48;100.00;100104.09;4994737;28;20039;-53
2022/10/24 03:26:19;;;;;;;14.27;2.03;;;;;;;24.27;100.00;100115.47;5013581;28;20533;-53
2022/10/24 03:28:44;;;;;;;8.45;1.98;;;;;;;24.64;100.00;100110.03;4995602;28;20039;-49
2022/10/24 03:31:10;;;;;;;3.40;1.40;;;;;;;24.85;98.25;100132.28;4996207;28;20038;-53
2022/10/24 03:33:36;;;;;;;6.03;1.30;;;;;;;24.16;100.00;100112.16;5000802;28;20055;-51
2022/10/24 03:36:01;;;;;;;14.67;1.90;;;;;;;24.66;100.00;100105.06;5011608;28;20050;-52
2022/10/24 03:38:27;;;;;;;7.43;1.73;;;;;;;24.44;100.00;100138.63;5004892;28;20056;-49
2022/10/24 03:40:52;;;;;;;10.77;1.77;;;;;;;29.92;73.37;100121.94;5004423;28;20039;-52
2022/10/24 03:43:19;;;;;;;9.63;1.42;;;;;;;28.03;93.25;100114.41;5012845;28;20030;-49
2022/10/24 03:45:44;;;;;;;14.90;2.20;;;;;;;25.33;98.62;100091.72;5014958;28;20042;-52
2022/10/24 03:48:10;;;;;;;9.30;1.80;;;;;;;24.97;97.13;100104.38;4997913;28;20049;-47
2022/10/24 03:50:36;;;;;;;9.77;1.42;;;;;;;24.55;100.00;100100.94;5009902;28;20075;-52
2022/10/24 03:53:02;;;;;;;8.10;2.03;;;;;;;24.23;100.00;100091.81;5003100;28;20026;-47
2022/10/24 03:55:28;;;;;;;8.35;1.30;;;;;;;24.07;100.00;100070.28;5003121;28;20031;-52
2022/10/24 03:57:54;;;;;;;7.85;1.50;;;;;;;24.35;100.00;100081.16;5011043;28;20109;-52
2022/10/24 04:00:20;;;;;;;4.28;1.08;;;;;;;24.00;100.00;100094.44;5003631;28;20038;-52
2022/10/24 04:02:46;;;;;;;6.20;1.60;;;;;;;24.12;100.00;100077.56;5010122;28;20037;-49
2022/10/24 04:05:12;;;;;;;5.85;1.70;;;;;;;24.41;100.00;100079.91;5004197;28;20039;-50
2022/10/24 04:07:38;;;;;;;11.50;2.33;;;;;;;25.77;84.63;100089.19;5000851;28;20040;-48
2022/10/24 04:10:04;;;;;;;4.32;1.02;;;;;;;28.07;87.40;100084.31;5003916;28;20065;-51
2022/10/24 04:12:31;;;;;;;8.10;1.37;;;;;;;24.83;97.69;100079.00;5011154;28;20034;-50
2022/10/24 04:14:56;;;;;;;13.48;1.77;;;;;;;24.46;99.11;100081.75;5001144;28;20129;-51
2022/10/24 04:17:22;;;;;;;7.25;1.67;;;;;;;24.71;100.00;100083.09;5006296;28;20030;-51
2022/10/24 04:19:48;;;;;;;12.65;1.98;;;;;;;25.02;97.71;100090.56;5003288;28;20038;-50
2022/10/24 04:22:13;;;;;;;10.55;1.60;;;;;;;24.61;100.00;100092.34;5013724;28;20130;-49
2022/10/24 04:24:39;;;;;;;5.13;1.40;;;;;;;24.51;100.00;100091.75;5010525;28;20052;-49
2022/10/24 04:27:06;;;;;;;11.88;1.40;;;;;;;24.48;100.00;100091.25;5002044;28;20035;-49
2022/10/24 04:29:31;;;;;;;5.77;1.47;;;;;;;24.48;100.00;100091.25;5000937;28;20068;-49
2022/10/24 04:31:56;;;;;;;5.27;1.40;;;;;;;24.68;100.00;100089.19;5001993;28;20030;-51
2022/10/24 04:34:22;;;;;;;9.35;1.45;;;;;;;24.39;100.00;100104.00;4996412;28;20034;-50
2022/10/24 04:36:48;;;;;;;8.52;1.88;;;;;;;24.48;100.00;100091.25;5013909;28;20071;-51
2022/10/24 04:39:13;;;;;;;9.73;1.75;;;;;;;24.56;100.00;100081.50;5016966;28;20059;-50
2022/10/24 04:41:39;;;;;;;7.30;1.23;;;;;;;24.81;100.00;100083.97;5011267;28;20180;-53
2022/10/24 04:44:04;;;;;;;5.35;1.10;;;;;;;24.71;100.00;100085.81;5002314;28;20034;-51
2022/10/24 04:46:30;;;;;;;5.40;1.35;;;;;;;25.16;100.00;100076.03;5001898;28;20039;-50
2022/10/24 04:48:55;;;;;;;4.20;1.60;;;;;;;24.82;100.00;100085.59;5005455;28;20041;-55
2022/10/24 04:51:21;;;;;;;9.13;1.42;;;;;;;24.45;100.00;100091.06;5006902;28;20312;-50
2022/10/24 04:53:46;;;;;;;9.82;1.60;;;;;;;24.53;100.00;100097.72;5012819;28;20074;-52
2022/10/24 04:56:11;;;;;;;3.70;1.50;;;;;;;24.67;100.00;100087.53;4998740;28;20034;-54
2022/10/24 04:58:37;;;;;;;5.97;1.63;;;;;;;24.87;100.00;100105.44;4999704;28;20031;-51
2022/10/24 05:01:03;;;;;;;10.48;2.00;;;;;;;24.89;100.00;100089.50;5018237;28;20054;-47
2022/10/24 05:03:28;;;;;;;10.15;1.58;;;;;;;24.89;100.00;100099.63;5007292;28;20056;-50
2022/10/24 05:05:54;;;;;;;7.40;1.80;;;;;;;24.88;100.00;100087.09;5018007;28;20108;-52
2022/10/24 05:08:19;;;;;;;7.07;1.40;;;;;;;25.11;100.00;100082.41;5007689;28;20035;-51
2022/10/24 05:10:45;;;;;;;8.10;1.60;;;;;;;25.21;100.00;100092.31;5000156;28;20039;-51
2022/10/24 05:13:11;;;;;;;9.05;2.40;;;;;;;24.93;100.00;100089.72;5001757;28;20058;-52
2022/10/24 05:15:37;;;;;;;4.25;1.70;;;;;;;24.86;100.00;100078.38;5004655;28;20061;-50
2022/10/24 05:18:03;;;;;;;14.02;2.50;;;;;;;24.97;100.00;100107.09;5005610;28;20038;-48
2022/10/24 05:20:29;;;;;;;11.17;2.17;;;;;;;24.99;100.00;100093.94;5011024;28;20040;-53
2022/10/24 05:22:55;;;;;;;11.25;2.08;;;;;;;24.88;100.00;100100.75;5007329;28;20138;-53
2022/10/24 05:25:21;;;;;;;7.68;1.77;;;;;;;25.21;100.00;100105.97;5009743;28;20053;-47
2022/10/24 05:27:46;;;;;;;11.30;2.08;;;;;;;25.31;100.00;100100.22;5001275;28;20043;-48
2022/10/24 05:30:13;;;;;;;5.18;1.45;;;;;;;24.51;100.00;100114.41;4992819;28;20026;-50
2022/10/24 05:32:38;;;;;;;7.68;1.73;;;;;;;24.84;100.00;100105.22;4994076;28;20035;-52
2022/10/24 05:35:05;;;;;;;6.03;1.58;;;;;;;26.14;96.49;100103.50;4998294;28;20046;-52
2022/10/24 05:37:30;;;;;;;9.18;1.73;;;;;;;25.34;100.00;100102.34;4996445;28;20046;-49
2022/10/24 05:39:56;;;;;;;5.53;1.52;;;;;;;25.19;100.00;100108.22;5003960;28;20027;-48
2022/10/24 05:42:21;;;;;;;6.32;1.50;;;;;;;25.34;100.00;100109.75;4997773;28;20031;-53
2022/10/24 05:44:47;;;;;;;6.03;1.10;;;;;;;25.26;100.00;100100.38;4997126;28;20039;-51
2022/10/24 05:47:13;;;;;;;8.13;1.50;;;;;;;25.70;99.70;100114.28;4990270;28;20039;-48
2022/10/24 05:49:38;;;;;;;6.80;1.57;;;;;;;25.56;100.00;100091.69;4993339;28;20038;-50
2022/10/24 05:52:04;;;;;;;6.13;1.45;;;;;;;29.28;93.92;100113.91;4997419;28;20306;-51
2022/10/24 05:54:30;;;;;;;6.03;1.40;;;;;;;25.88;95.02;100095.19;4999086;28;20031;-50
2022/10/24 05:56:55;;;;;;;5.43;1.50;;;;;;;25.32;98.93;100092.84;5000255;28;20046;-50
2022/10/24 05:59:21;;;;;;;5.75;1.35;;;;;;;25.40;99.41;100105.75;5002457;28;20030;-52
2022/10/24 06:01:46;;;;;;;9.60;1.58;;;;;;;25.55;97.37;100120.19;4997532;28;20034;-49
2022/10/24 06:04:12;;;;;;;3.47;1.17;;;;;;;25.19;98.42;100114.47;4988403;28;20043;-52
2022/10/24 06:06:39;;;;;;;9.63;1.60;;;;;;;25.65;98.09;100116.38;5000549;28;20046;-49
2022/10/24 06:09:05;;;;;;;7.83;1.70;;;;;;;25.45;99.19;100115.78;5000800;28;20061;-46
2022/10/24 06:11:31;;;;;;;6.32;1.48;;;;;;;25.40;100.00;100108.50;4998555;28;20034;-48
2022/10/24 06:13:57;;;;;;;5.15;1.58;;;;;;;25.30;100.00;100112.28;5004728;28;20034;-47
2022/10/24 06:16:23;;;;;;;10.48;2.05;;;;;;;24.85;100.00;100117.78;4999752;28;20035;-48
2022/10/24 06:18:49;;;;;;;11.30;1.30;;;;;;;25.18;100.00;100123.81;4988887;28;20046;-48
2022/10/24 06:21:15;;;;;;;12.60;1.48;;;;;;;24.92;100.00;100115.44;4997762;28;20056;-48
2022/10/24 06:23:41;;;;;;;10.90;1.42;;;;;;;24.86;100.00;100125.69;4996203;28;20045;-50
2022/10/24 06:26:09;;;;;;;9.53;1.90;;;;;;;25.02;100.00;100137.06;4998517;28;20035;-50
2022/10/24 06:28:35;;;;;;;9.93;2.00;;;;;;;25.20;100.00;100131.72;5003499;28;20039;-51
2022/10/24 06:31:02;;;;;;;9.70;1.98;;;;;;;24.91;98.92;100130.22;5000248;28;20087;-51
2022/10/24 06:33:27;;;;;;;8.50;1.87;;;;;;;25.09;100.00;100130.34;4990497;28;20038;-47
2022/10/24 06:35:53;;;;;;;8.88;2.13;;;;;;;24.64;100.00;100148.28;4991611;28;20058;-49
2022/10/24 06:38:18;;;;;;;8.43;1.70;;;;;;;25.12;100.00;100157.91;4991665;28;20050;-52
2022/10/24 06:40:44;;;;;;;7.40;2.28;;;;;;;24.57;100.00;100167.88;4991500;28;20027;-50
2022/10/24 06:43:09;;;;;;;9.70;1.70;;;;;;;24.72;100.00;100166.72;5001499;28;20102;-49
2022/10/24 06:45:37;;;;;;;7.43;1.63;;;;;;;24.81;100.00;100149.59;4988874;28;20046;-49
2022/10/24 06:48:03;;;;;;;8.30;1.20;;;;;;;24.83;100.00;100155.56;4988217;28;20273;-53
2022/10/24 06:50:29;;;;;;;8.55;1.80;;;;;;;24.93;100.00;100169.03;4995286;28;20106;-53
2022/10/24 06:52:54;;;;;;;9.00;1.50;;;;;;;24.95;100.00;100174.97;4990817;28;20034;-51
2022/10/24 06:55:19;;;;;;;10.90;1.83;;;;;;;24.89;100.00;100166.09;4987164;28;20051;-52
2022/10/24 06:57:45;;;;;;;13.45;1.92;;;;;;;25.04;100.00;100156.72;4990307;28;20066;-53
2022/10/24 07:00:13;;;;;;;10.07;1.50;;;;;;;25.12;100.00;100163.38;4989121;28;20058;-51
2022/10/24 07:02:38;;;;;;;10.43;2.00;;;;;;;25.41;98.31;100161.31;4991393;28;20068;-51
2022/10/24 07:05:07;;;;;;;8.88;1.30;;;;;;;25.30;98.80;100167.03;4993865;28;20047;-49
2022/10/24 07:07:33;;;;;;;8.13;1.83;;;;;;;24.94;100.00;100184.31;4990603;28;20040;-50
2022/10/24 07:09:59;;;;;;;8.30;1.45;;;;;;;24.92;100.00;100187.34;4991117;28;20030;-48
2022/10/24 07:12:24;;;;;;;8.87;1.70;;;;;;;25.63;99.22;100180.47;4987893;28;20039;-51
2022/10/24 07:14:51;;;;;;;;;;;;;;;25.49;97.60;100185.22;4993057;28;20300;-48
2022/10/24 07:17:18;;;;;;;15.33;2.13;;;;;;;25.60;98.76;100180.28;4992459;28;19914;-50
2022/10/24 07:19:43;;;;;;;15.87;2.50;;;;;;;25.27;100.00;100197.75;4995478;28;20050;-53
2022/10/24 07:22:09;;;;;;;7.23;1.50;;;;;;;25.10;100.00;100203.06;4987840;28;20031;-53
2022/10/24 07:24:35;;;;;;;15.20;1.58;;;;;;;25.02;100.00;100189.03;4990182;28;20084;-49
2022/10/24 07:27:01;;;;;;;9.73;2.13;;;;;;;24.73;100.00;100206.59;4992953;28;20064;-53
2022/10/24 07:29:26;;;;;;;17.23;2.05;;;;;;;24.76;100.00;100197.81;4991123;28;20051;-50
2022/10/24 07:31:52;;;;;;;11.82;1.50;;;;;;;25.19;100.00;100212.97;4987943;28;20106;-53
2022/10/24 07:34:17;;;;;;;8.00;1.83;;;;;;;27.73;74.24;100227.78;4990419;28;20032;-53
2022/10/24 07:36:43;;;;;;;10.70;1.50;;;;;;;25.40;97.54;100228.91;4989645;28;20066;-47
2022/10/24 07:39:08;;;;;;;8.98;2.00;;;;;;;25.73;95.10;100219.66;4991331;28;20031;-52
2022/10/24 07:41:37;;;;;;;8.37;1.70;;;;;;;24.86;100.00;100226.03;4992036;28;20042;-56
2022/10/24 07:44:02;;;;;;;7.20;1.27;;;;;;;24.95;100.00;100267.16;4986068;28;20040;-55
2022/10/24 07:46:28;;;;;;;10.93;2.20;;;;;;;25.22;100.00;100230.72;4991001;28;20031;-52
2022/10/24 07:48:54;;;;;;;10.63;1.58;;;;;;;24.74;100.00;100221.88;4987725;28;20043;-50
2022/10/24 07:51:21;;;;;;;10.23;2.08;;;;;;;24.78;100.00;100230.31;4990835;28;20110;-50
2022/10/24 07:53:47;;;;;;;11.90;1.50;;;;;;;24.97;100.00;100232.91;4989012;28;20049;-50
2022/10/24 07:56:14;;;;;;;10.13;2.05;;;;;;;29.15;93.19;100241.66;4980148;28;20027;-53
2022/10/24 07:58:42;;;;;;;8.33;1.57;;;;;;;25.40;100.00;100239.06;4989724;28;20426;-53
2022/10/24 08:01:12;;;;;;;9.63;1.37;;;;;;;24.93;100.00;100242.84;4994381;28;20039;-49
2022/10/24 08:03:37;;;;;;;5.33;1.63;;;;;;;24.44;100.00;100232.31;4996913;28;20046;-54
2022/10/24 08:06:06;;;;;;;11.10;1.92;;;;;;;24.71;100.00;100252.59;4995217;28;20067;-53
2022/10/24 08:08:31;;;;;;;9.03;1.70;;;;;;;27.37;88.39;100256.44;5004508;28;20051;-49
2022/10/24 08:10:56;;;;;;;12.60;2.13;;;;;;;29.61;82.34;100261.84;5001049;28;20086;-54
2022/10/24 08:13:22;;;;;;;9.70;1.70;;;;;;;29.74;72.57;100270.94;5002556;28;20053;-51
2022/10/24 08:15:47;;;;;;;12.10;2.55;;;;;;;29.57;72.46;100258.16;5005270;28;20038;-50
2022/10/24 08:18:13;;;;;;;7.25;1.35;;;;;;;27.90;74.53;100275.59;5007053;28;20098;-51
2022/10/24 08:20:38;;;;;;;10.90;2.20;;;;;;;25.25;96.62;100290.28;5006019;28;20046;-50
2022/10/24 08:23:04;;;;;;;14.25;1.55;;;;;;;25.50;99.47;100243.50;5011860;28;20102;-51
2022/10/24 08:25:29;;;;;;;10.93;2.00;;;;;;;25.32;99.38;100271.50;5006439;28;20039;-50
2022/10/24 08:27:55;;;;;;;10.50;2.28;;;;;;;27.19;92.45;100261.09;5008023;28;20296;-51
2022/10/24 08:30:20;;;;;;;9.50;2.10;;;;;;;26.56;92.05;100269.53;4997948;28;20039;-48
2022/10/24 08:32:46;;;;;;;6.38;1.35;;;;;;;26.83;89.21;100264.91;5003297;28;20062;-50
2022/10/24 08:35:16;;;;;;;11.88;2.03;;;;;;;26.31;91.27;100264.44;5007931;28;20061;-51
2022/10/24 08:37:42;;;;;;;9.37;1.20;;;;;;;25.52;95.37;100272.16;4996333;28;20056;-50
2022/10/24 08:40:11;;;;;;;;;;;;;;;25.93;93.72;100259.38;5009699;28;20038;-48
2022/10/24 08:42:38;;;;;;;6.80;1.70;;;;;;;25.50;97.33;100266.19;5000151;28;19913;-50
2022/10/24 08:45:12;;;;;;;10.77;1.33;;;;;;;25.56;98.06;100269.63;4998980;28;20070;-53
2022/10/24 08:47:44;;;;;;;7.73;1.23;;;;;;;25.38;99.94;100268.66;5004665;28;20046;-50
2022/10/24 08:50:20;;;;;;;8.63;1.40;;;;;;;26.14;95.00;100280.75;4998279;28;20046;-50
2022/10/24 08:53:03;;;;;;;4.38;1.40;;;;;;;26.24;93.28;100282.44;5002794;28;20043;-51
2022/10/24 08:55:36;;;;;;;7.23;1.60;;;;;;;25.20;98.79;100284.94;5005074;28;20038;-49
2022/10/24 08:58:03;;;;;;;6.80;1.20;;;;;;;24.89;100.00;100302.00;4999537;28;20089;-51
2022/10/24 09:00:35;;;;;;;7.87;1.67;;;;;;;26.80;91.65;100279.28;5010406;28;20034;-51
2022/10/24 09:03:25;;;;;;;9.10;1.37;;;;;;;25.66;93.92;100290.47;4999707;28;20041;-51
2022/10/24 09:05:59;;;;;;;9.93;1.70;;;;;;;27.97;83.43;100303.38;5004911;28;20050;-49
2022/10/24 09:08:37;;;;;;;6.90;1.47;;;;;;;27.83;80.87;100298.06;5003881;28;20026;-51
2022/10/24 09:11:04;;;;;;;11.57;2.60;;;;;;;28.11;78.70;100300.41;5005270;28;20024;-52
2022/10/24 09:13:35;;;;;;;8.70;2.43;;;;;;;28.12;78.67;100295.75;4994767;28;20039;-53
2022/10/24 09:16:00;;;;;;;4.90;1.27;;;;;;;31.71;64.34;100310.97;4994185;28;20065;-48
2022/10/24 09:18:46;;;;;;;;;;;;;;;30.31;66.05;100307.13;4985878;28;20031;-49
2022/10/24 09:21:14;;;;;;;12.43;1.43;;;;;;;29.61;69.32;100314.19;4982157;28;19914;-49
2022/10/24 09:23:41;;;;;;;8.97;1.53;;;;;;;29.52;66.47;100334.69;4992179;28;20049;-50
2022/10/24 09:26:15;;;;;;;10.37;1.80;;;;;;;29.20;71.46;100315.78;4988178;28;20058;-51
2022/10/24 09:28:41;;;;;;;6.47;1.10;;;;;;;29.98;67.01;100331.97;4984225;28;20038;-52
2022/10/24 09:31:19;;;;;;;6.68;1.65;;;;;;;30.53;64.90;100337.41;4982989;28;20058;-47
2022/10/24 09:33:47;;;;;;;4.40;1.47;;;;;;;29.11;67.21;100340.63;4984491;28;20040;-53
2022/10/24 09:36:16;;;;;;;6.87;1.63;;;;;;;27.78;74.72;100328.47;4987186;28;20031;-53
2022/10/24 09:38:43;;;;;;;7.07;1.20;;;;;;;26.80;81.61;100336.88;4984743;28;20037;-51
2022/10/24 09:41:12;;;;;;;9.27;1.63;;;;;;;28.54;74.77;100331.69;4989891;28;20066;-51
2022/10/24 09:43:49;;;;;;;7.23;1.40;;;;;;;29.40;72.29;100341.69;4984869;28;20058;-50
2022/10/24 09:46:17;;;;;;;7.47;1.20;;;;;;;29.19;69.61;100349.97;4985834;28;20730;-49
2022/10/24 09:48:54;;;;;;;6.17;1.40;;;;;;;28.38;73.06;100342.44;4987961;28;20042;-52
2022/10/24 09:51:26;;;;;;;9.40;1.40;;;;;;;27.16;78.25;100341.31;4989844;28;20082;-49
2022/10/24 09:54:00;;;;;;;13.33;2.10;;;;;;;28.53;77.61;100354.81;4991851;28;20042;-49
2022/10/24 09:56:40;;;;;;;6.80;1.00;;;;;;;28.35;73.97;100381.56;4994767;28;20046;-52
2022/10/24 09:59:30;;;;;;;7.90;1.80;;;;;;;27.13;81.08;100362.00;5000235;28;20050;-49
2022/10/24 10:02:27;;;;;;;7.50;1.50;;;;;;;27.62;78.47;100366.59;4997040;28;20042;-48
2022/10/24 10:05:02;;;;;;;10.07;1.67;;;;;;;27.01;81.69;100384.56;5001599;28;20031;-50
2022/10/24 10:07:40;;;;;;;9.67;1.77;;;;;;;26.42;82.25;100393.78;5001331;28;20054;-46
2022/10/24 10:10:28;;;;;;;8.73;1.27;;;;;;;26.51;83.71;100382.88;4999323;28;20035;-47
2022/10/24 10:13:05;;;;;;;7.63;1.10;;;;;;;26.97;80.88;100377.28;4997297;28;20038;-54
2022/10/24 10:15:36;;;;;;;;;;;;;;;27.09;79.60;100398.63;4996191;28;20038;-48
2022/10/24 10:18:23;;;;;;;10.07;1.50;;;;;;;28.55;74.11;100396.56;5000111;28;19909;-49
2022/10/24 10:21:10;;;;;;;6.87;1.37;;;;;;;29.75;68.22;100401.25;5002518;28;20027;-50
2022/10/24 10:23:40;;;;;;;6.75;1.17;;;;;;;28.14;72.75;100390.50;4998637;28;20050;-52
2022/10/24 10:26:20;;;;;;;8.97;1.40;;;;;;;26.81;78.34;100404.31;4989083;28;20098;-53
2022/10/24 10:28:55;;;;;;;9.93;1.57;;;;;;;26.59;80.43;100405.97;4989251;28;20084;-50
2022/10/24 10:31:47;;;;;;;6.13;1.13;;;;;;;26.26;83.12;100406.25;4984991;28;20042;-52
2022/10/24 10:34:34;;;;;;;5.87;0.97;;;;;;;26.81;80.71;100404.31;4985948;28;20090;-52
2022/10/24 10:37:28;;;;;;;5.00;0.82;;;;;;;26.14;83.34;100421.31;4986138;28;20027;-53
2022/10/24 10:40:14;;;;;;;4.97;0.90;;;;;;;25.66;86.36;100449.28;4988950;28;20041;-52
2022/10/24 10:42:54;;;;;;;10.97;1.40;;;;;;;25.42;89.91;100417.44;4987236;28;20058;-51
2022/10/24 10:45:34;;;;;;;6.60;1.47;;;;;;;26.82;84.73;100460.78;4986619;28;20046;-49
2022/10/24 10:48:31;;;;;;;5.93;0.80;;;;;;;25.94;87.27;100439.03;4990823;28;20509;-53
2022/10/24 10:51:22;;;;;;;6.25;1.58;;;;;;;25.45;93.23;100434.06;4989216;28;20054;-51
2022/10/24 10:54:35;;;;;;;5.37;1.13;;;;;;;25.19;92.06;100469.34;4989955;28;20053;-48
2022/10/24 10:57:11;;;;;;;3.47;0.90;;;;;;;26.16;88.14;100457.47;5006235;28;20054;-54
2022/10/24 10:59:59;;;;;;;3.97;0.80;;;;;;;26.44;86.53;100451.06;4990038;28;20134;-52
2022/10/24 11:02:24;;;;;;;;;;;;;;;25.54;92.10;100447.88;5002320;28;20050;-50
2022/10/24 11:05:18;;;;;;;12.30;1.40;;;;;;;27.59;81.04;100450.44;4997665;28;19914;-53
2022/10/24 11:07:57;;;;;;;6.30;1.60;;;;;;;27.74;79.39;100451.09;4996302;28;20071;-48
2022/10/24 11:10:28;;;;;;;6.03;1.23;;;;;;;27.76;78.84;100454.34;4995118;28;20023;-55
2022/10/24 11:12:57;;;;;;;9.57;1.60;;;;;;;28.03;77.99;100458.72;5001913;28;20035;-51
2022/10/24 11:15:27;;;;;;;13.60;1.53;;;;;;;27.74;79.01;100473.88;4997383;28;20030;-50
2022/10/24 11:18:07;;;;;;;2.93;1.07;;;;;;;27.84;77.15;100470.00;5002286;28;20032;-53
2022/10/24 11:20:52;;;;;;;6.73;1.30;;;;;;;26.57;80.69;100476.78;4994283;28;20031;-51
2022/10/24 11:23:36;;;;;;;11.43;1.60;;;;;;;27.27;78.46;100477.16;4992568;28;20037;-50
2022/10/24 11:26:37;;;;;;;6.37;1.33;;;;;;;26.46;81.88;100490.72;4996575;28;20030;-52
2022/10/24 11:29:13;;;;;;;6.37;1.33;;;;;;;27.13;80.79;100480.00;5002494;28;20054;-50
2022/10/24 11:31:43;;;;;;;9.45;1.55;;;;;;;27.56;79.41;100485.94;4997844;28;20029;-53